sensor_id;sensor_type;location;lat;lon;timestamp;P1;durP1;ratioP1;P2;durP2;ratioP2
59336;SDS011;45115;52.002;4.686;2023-10-13T00:01:47;21.70;;;9.55;;
59336;SDS011;45115;52.002;4.686;2023-10-13T00:04:17;24.85;;;9.98;;
59336;SDS011;45115;52.002;4.686;2023-10-13T00:06:50;20.25;;;10.00;;
59336;SDS011;45115;52.002;4.686;2023-10-13T00:09:17;22.55;;;10.13;;
59336;SDS011;45115;52.002;4.686;2023-10-13T00:11:48;22.52;;;10.40;;
59336;SDS011;45115;52.002;4.686;2023-10-13T00:14:17;22.33;;;11.43;;
59336;SDS011;45115;52.002;4.686;2023-10-13T00:16:47;24.10;;;11.27;;
59336;SDS011;45115;52.002;4.686;2023-10-13T00:19:28;26.63;;;13.00;;
59336;SDS011;45115;52.002;4.686;2023-10-13T00:22:02;22.95;;;11.93;;
59336;SDS011;45115;52.002;4.686;2023-10-13T00:24:34;26.10;;;12.73;;
59336;SDS011;45115;52.002;4.686;2023-10-13T00:27:08;26.92;;;12.77;;
59336;SDS011;45115;52.002;4.686;2023-10-13T00:29:49;29.55;;;12.52;;
59336;SDS011;45115;52.002;4.686;2023-10-13T00:32:18;27.70;;;13.43;;
59336;SDS011;45115;52.002;4.686;2023-10-13T00:34:52;28.27;;;12.88;;
59336;SDS011;45115;52.002;4.686;2023-10-13T00:37:21;30.35;;;14.05;;
59336;SDS011;45115;52.002;4.686;2023-10-13T00:39:53;26.55;;;13.98;;
59336;SDS011;45115;52.002;4.686;2023-10-13T00:42:22;29.80;;;14.13;;
59336;SDS011;45115;52.002;4.686;2023-10-13T00:44:59;25.27;;;12.68;;
59336;SDS011;45115;52.002;4.686;2023-10-13T00:47:27;24.75;;;12.75;;
59336;SDS011;45115;52.002;4.686;2023-10-13T00:50:13;26.48;;;11.95;;
59336;SDS011;45115;52.002;4.686;2023-10-13T00:52:40;24.02;;;12.00;;
59336;SDS011;45115;52.002;4.686;2023-10-13T00:55:12;25.95;;;11.30;;
59336;SDS011;45115;52.002;4.686;2023-10-13T00:57:40;24.00;;;11.65;;
59336;SDS011;45115;52.002;4.686;2023-10-13T01:00:07;23.52;;;11.60;;
59336;SDS011;45115;52.002;4.686;2023-10-13T01:02:45;23.90;;;10.65;;
59336;SDS011;45115;52.002;4.686;2023-10-13T01:05:20;23.55;;;10.75;;
59336;SDS011;45115;52.002;4.686;2023-10-13T01:07:47;24.75;;;10.95;;
59336;SDS011;45115;52.002;4.686;2023-10-13T01:10:18;22.23;;;10.70;;
59336;SDS011;45115;52.002;4.686;2023-10-13T01:12:45;22.95;;;11.27;;
59336;SDS011;45115;52.002;4.686;2023-10-13T01:15:12;21.42;;;10.35;;
59336;SDS011;45115;52.002;4.686;2023-10-13T01:17:42;22.38;;;11.25;;
59336;SDS011;45115;52.002;4.686;2023-10-13T01:20:12;19.73;;;9.52;;
59336;SDS011;45115;52.002;4.686;2023-10-13T01:22:45;21.70;;;9.98;;
59336;SDS011;45115;52.002;4.686;2023-10-13T01:25:23;18.63;;;9.23;;
59336;SDS011;45115;52.002;4.686;2023-10-13T01:27:53;17.90;;;8.23;;
59336;SDS011;45115;52.002;4.686;2023-10-13T01:30:19;18.35;;;8.60;;
59336;SDS011;45115;52.002;4.686;2023-10-13T01:35:17;18.95;;;9.35;;
59336;SDS011;45115;52.002;4.686;2023-10-13T01:37:50;18.30;;;8.88;;
59336;SDS011;45115;52.002;4.686;2023-10-13T01:40:16;21.17;;;9.35;;
59336;SDS011;45115;52.002;4.686;2023-10-13T01:42:45;19.83;;;8.93;;
59336;SDS011;45115;52.002;4.686;2023-10-13T01:45:11;20.48;;;8.73;;
59336;SDS011;45115;52.002;4.686;2023-10-13T01:47:39;16.73;;;8.10;;
59336;SDS011;45115;52.002;4.686;2023-10-13T01:50:06;18.42;;;8.82;;
59336;SDS011;45115;52.002;4.686;2023-10-13T01:52:40;16.67;;;8.35;;
59336;SDS011;45115;52.002;4.686;2023-10-13T01:55:07;18.80;;;8.10;;
59336;SDS011;45115;52.002;4.686;2023-10-13T01:57:36;20.33;;;9.25;;
59336;SDS011;45115;52.002;4.686;2023-10-13T02:00:03;19.55;;;8.63;;
59336;SDS011;45115;52.002;4.686;2023-10-13T02:02:43;17.55;;;8.32;;
59336;SDS011;45115;52.002;4.686;2023-10-13T02:05:10;20.60;;;8.82;;
59336;SDS011;45115;52.002;4.686;2023-10-13T02:07:41;20.33;;;8.25;;
59336;SDS011;45115;52.002;4.686;2023-10-13T02:10:10;20.95;;;9.15;;
59336;SDS011;45115;52.002;4.686;2023-10-13T02:12:39;19.02;;;9.18;;
59336;SDS011;45115;52.002;4.686;2023-10-13T02:15:09;21.20;;;9.27;;
59336;SDS011;45115;52.002;4.686;2023-10-13T02:17:45;20.38;;;8.40;;
59336;SDS011;45115;52.002;4.686;2023-10-13T02:20:16;18.30;;;8.88;;
59336;SDS011;45115;52.002;4.686;2023-10-13T02:22:47;18.65;;;8.50;;
59336;SDS011;45115;52.002;4.686;2023-10-13T02:25:14;19.27;;;9.30;;
59336;SDS011;45115;52.002;4.686;2023-10-13T02:27:59;19.42;;;9.02;;
59336;SDS011;45115;52.002;4.686;2023-10-13T02:30:26;18.55;;;8.50;;
59336;SDS011;45115;52.002;4.686;2023-10-13T02:32:54;20.52;;;8.30;;
59336;SDS011;45115;52.002;4.686;2023-10-13T02:35:21;17.80;;;8.38;;
59336;SDS011;45115;52.002;4.686;2023-10-13T02:37:56;16.10;;;8.00;;
59336;SDS011;45115;52.002;4.686;2023-10-13T02:40:23;17.20;;;8.43;;
59336;SDS011;45115;52.002;4.686;2023-10-13T02:42:49;19.13;;;8.13;;
59336;SDS011;45115;52.002;4.686;2023-10-13T02:45:15;16.92;;;7.95;;
59336;SDS011;45115;52.002;4.686;2023-10-13T02:47:47;17.38;;;8.38;;
59336;SDS011;45115;52.002;4.686;2023-10-13T02:50:33;16.98;;;7.68;;
59336;SDS011;45115;52.002;4.686;2023-10-13T02:53:00;17.90;;;7.32;;
59336;SDS011;45115;52.002;4.686;2023-10-13T02:55:25;15.68;;;7.15;;
59336;SDS011;45115;52.002;4.686;2023-10-13T02:57:53;19.08;;;7.75;;
59336;SDS011;45115;52.002;4.686;2023-10-13T03:00:21;16.08;;;7.18;;
59336;SDS011;45115;52.002;4.686;2023-10-13T03:02:50;16.85;;;7.70;;
59336;SDS011;45115;52.002;4.686;2023-10-13T03:05:23;18.02;;;7.75;;
59336;SDS011;45115;52.002;4.686;2023-10-13T03:08:05;15.63;;;6.82;;
59336;SDS011;45115;52.002;4.686;2023-10-13T03:10:59;17.50;;;7.13;;
59336;SDS011;45115;52.002;4.686;2023-10-13T03:13:26;18.90;;;7.50;;
59336;SDS011;45115;52.002;4.686;2023-10-13T03:15:53;16.48;;;7.53;;
59336;SDS011;45115;52.002;4.686;2023-10-13T03:18:21;16.95;;;7.93;;
59336;SDS011;45115;52.002;4.686;2023-10-13T03:20:48;20.40;;;8.20;;
59336;SDS011;45115;52.002;4.686;2023-10-13T03:23:22;16.98;;;7.55;;
59336;SDS011;45115;52.002;4.686;2023-10-13T03:25:50;18.90;;;8.55;;
59336;SDS011;45115;52.002;4.686;2023-10-13T03:28:19;17.08;;;8.15;;
59336;SDS011;45115;52.002;4.686;2023-10-13T03:30:50;18.02;;;8.48;;
59336;SDS011;45115;52.002;4.686;2023-10-13T03:33:18;15.30;;;7.88;;
59336;SDS011;45115;52.002;4.686;2023-10-13T03:35:52;18.45;;;7.30;;
59336;SDS011;45115;52.002;4.686;2023-10-13T03:38:19;14.43;;;6.18;;
59336;SDS011;45115;52.002;4.686;2023-10-13T03:40:52;14.50;;;6.32;;
59336;SDS011;45115;52.002;4.686;2023-10-13T03:43:37;15.90;;;6.70;;
59336;SDS011;45115;52.002;4.686;2023-10-13T03:46:11;13.50;;;6.18;;
59336;SDS011;45115;52.002;4.686;2023-10-13T03:48:37;14.65;;;6.22;;
59336;SDS011;45115;52.002;4.686;2023-10-13T03:51:18;12.95;;;5.85;;
59336;SDS011;45115;52.002;4.686;2023-10-13T03:53:46;16.65;;;7.38;;
59336;SDS011;45115;52.002;4.686;2023-10-13T03:56:18;14.50;;;6.85;;
59336;SDS011;45115;52.002;4.686;2023-10-13T03:58:52;15.75;;;7.28;;
59336;SDS011;45115;52.002;4.686;2023-10-13T04:01:23;18.65;;;7.60;;
59336;SDS011;45115;52.002;4.686;2023-10-13T04:03:56;17.40;;;8.73;;
59336;SDS011;45115;52.002;4.686;2023-10-13T04:06:30;15.75;;;8.45;;
59336;SDS011;45115;52.002;4.686;2023-10-13T04:09:13;19.20;;;9.57;;
59336;SDS011;45115;52.002;4.686;2023-10-13T04:11:58;19.48;;;9.75;;
59336;SDS011;45115;52.002;4.686;2023-10-13T04:14:40;20.88;;;9.93;;
59336;SDS011;45115;52.002;4.686;2023-10-13T04:17:22;20.02;;;10.30;;
59336;SDS011;45115;52.002;4.686;2023-10-13T04:19:51;20.30;;;10.15;;
59336;SDS011;45115;52.002;4.686;2023-10-13T04:22:33;20.85;;;10.77;;
59336;SDS011;45115;52.002;4.686;2023-10-13T04:25:14;20.63;;;10.43;;
59336;SDS011;45115;52.002;4.686;2023-10-13T04:27:59;19.48;;;10.23;;
59336;SDS011;45115;52.002;4.686;2023-10-13T04:30:40;17.85;;;9.52;;
59336;SDS011;45115;52.002;4.686;2023-10-13T04:33:22;17.77;;;9.00;;
59336;SDS011;45115;52.002;4.686;2023-10-13T04:36:09;17.42;;;9.18;;
59336;SDS011;45115;52.002;4.686;2023-10-13T04:38:40;19.83;;;9.40;;
59336;SDS011;45115;52.002;4.686;2023-10-13T04:41:24;16.88;;;8.70;;
59336;SDS011;45115;52.002;4.686;2023-10-13T04:43:57;19.55;;;10.00;;
59336;SDS011;45115;52.002;4.686;2023-10-13T04:46:30;18.40;;;8.80;;
59336;SDS011;45115;52.002;4.686;2023-10-13T04:49:19;18.48;;;7.90;;
59336;SDS011;45115;52.002;4.686;2023-10-13T04:51:54;16.42;;;7.93;;
59336;SDS011;45115;52.002;4.686;2023-10-13T04:54:33;13.80;;;7.53;;
59336;SDS011;45115;52.002;4.686;2023-10-13T04:57:10;15.85;;;7.93;;
59336;SDS011;45115;52.002;4.686;2023-10-13T04:59:50;16.63;;;7.80;;
59336;SDS011;45115;52.002;4.686;2023-10-13T05:02:38;15.13;;;7.95;;
59336;SDS011;45115;52.002;4.686;2023-10-13T05:05:42;17.13;;;8.30;;
59336;SDS011;45115;52.002;4.686;2023-10-13T05:08:31;15.57;;;7.57;;
59336;SDS011;45115;52.002;4.686;2023-10-13T05:11:16;16.65;;;7.43;;
59336;SDS011;45115;52.002;4.686;2023-10-13T05:14:00;16.10;;;7.20;;
59336;SDS011;45115;52.002;4.686;2023-10-13T05:16:44;16.40;;;7.05;;
59336;SDS011;45115;52.002;4.686;2023-10-13T05:19:29;11.70;;;6.20;;
59336;SDS011;45115;52.002;4.686;2023-10-13T05:22:13;14.77;;;6.60;;
59336;SDS011;45115;52.002;4.686;2023-10-13T05:25:11;14.30;;;6.07;;
59336;SDS011;45115;52.002;4.686;2023-10-13T05:28:15;11.15;;;5.43;;
59336;SDS011;45115;52.002;4.686;2023-10-13T05:30:59;11.57;;;5.60;;
59336;SDS011;45115;52.002;4.686;2023-10-13T05:33:43;14.30;;;5.70;;
59336;SDS011;45115;52.002;4.686;2023-10-13T05:36:27;12.40;;;5.72;;
59336;SDS011;45115;52.002;4.686;2023-10-13T05:39:12;12.98;;;5.93;;
59336;SDS011;45115;52.002;4.686;2023-10-13T05:41:59;13.43;;;6.03;;
59336;SDS011;45115;52.002;4.686;2023-10-13T05:44:45;11.57;;;5.78;;
59336;SDS011;45115;52.002;4.686;2023-10-13T05:47:42;13.02;;;5.50;;
59336;SDS011;45115;52.002;4.686;2023-10-13T05:50:26;11.88;;;5.65;;
59336;SDS011;45115;52.002;4.686;2023-10-13T05:53:14;13.23;;;6.10;;
59336;SDS011;45115;52.002;4.686;2023-10-13T05:56:00;13.65;;;5.47;;
59336;SDS011;45115;52.002;4.686;2023-10-13T05:58:46;12.15;;;5.32;;
59336;SDS011;45115;52.002;4.686;2023-10-13T06:01:32;12.35;;;6.55;;
59336;SDS011;45115;52.002;4.686;2023-10-13T06:04:31;13.80;;;6.90;;
59336;SDS011;45115;52.002;4.686;2023-10-13T06:07:15;12.45;;;6.18;;
59336;SDS011;45115;52.002;4.686;2023-10-13T06:09:59;13.18;;;6.22;;
59336;SDS011;45115;52.002;4.686;2023-10-13T06:12:43;12.55;;;5.78;;
59336;SDS011;45115;52.002;4.686;2023-10-13T06:15:27;15.13;;;6.75;;
59336;SDS011;45115;52.002;4.686;2023-10-13T06:21:19;16.20;;;6.93;;
59336;SDS011;45115;52.002;4.686;2023-10-13T06:24:04;14.82;;;6.78;;
59336;SDS011;45115;52.002;4.686;2023-10-13T06:26:49;19.70;;;7.80;;
59336;SDS011;45115;52.002;4.686;2023-10-13T06:29:33;16.23;;;7.82;;
59336;SDS011;45115;52.002;4.686;2023-10-13T06:32:04;17.50;;;7.97;;
59336;SDS011;45115;52.002;4.686;2023-10-13T06:34:37;18.15;;;8.43;;
59336;SDS011;45115;52.002;4.686;2023-10-13T06:37:09;16.42;;;8.65;;
59336;SDS011;45115;52.002;4.686;2023-10-13T06:39:48;15.85;;;8.75;;
59336;SDS011;45115;52.002;4.686;2023-10-13T06:42:14;17.35;;;9.02;;
59336;SDS011;45115;52.002;4.686;2023-10-13T06:44:41;18.60;;;9.70;;
59336;SDS011;45115;52.002;4.686;2023-10-13T06:47:10;18.92;;;10.70;;
59336;SDS011;45115;52.002;4.686;2023-10-13T06:49:38;18.40;;;10.15;;
59336;SDS011;45115;52.002;4.686;2023-10-13T06:54:35;17.08;;;9.77;;
59336;SDS011;45115;52.002;4.686;2023-10-13T06:57:02;21.55;;;11.57;;
59336;SDS011;45115;52.002;4.686;2023-10-13T06:59:31;19.98;;;12.02;;
59336;SDS011;45115;52.002;4.686;2023-10-13T07:02:01;18.08;;;11.57;;
59336;SDS011;45115;52.002;4.686;2023-10-13T07:04:30;23.15;;;11.73;;
59336;SDS011;45115;52.002;4.686;2023-10-13T07:06:58;18.63;;;12.00;;
59336;SDS011;45115;52.002;4.686;2023-10-13T07:09:26;23.40;;;13.75;;
59336;SDS011;45115;52.002;4.686;2023-10-13T07:12:20;21.67;;;12.32;;
59336;SDS011;45115;52.002;4.686;2023-10-13T07:14:49;22.63;;;12.07;;
59336;SDS011;45115;52.002;4.686;2023-10-13T07:17:24;25.13;;;12.80;;
59336;SDS011;45115;52.002;4.686;2023-10-13T07:19:51;22.48;;;12.85;;
59336;SDS011;45115;52.002;4.686;2023-10-13T07:22:26;23.73;;;12.38;;
59336;SDS011;45115;52.002;4.686;2023-10-13T07:24:53;21.88;;;11.77;;
59336;SDS011;45115;52.002;4.686;2023-10-13T07:27:23;21.70;;;12.00;;
59336;SDS011;45115;52.002;4.686;2023-10-13T07:29:50;21.65;;;11.30;;
59336;SDS011;45115;52.002;4.686;2023-10-13T07:34:59;19.23;;;10.98;;
59336;SDS011;45115;52.002;4.686;2023-10-13T07:37:36;22.15;;;10.95;;
59336;SDS011;45115;52.002;4.686;2023-10-13T07:40:07;19.13;;;10.27;;
59336;SDS011;45115;52.002;4.686;2023-10-13T07:42:47;17.73;;;9.40;;
59336;SDS011;45115;52.002;4.686;2023-10-13T07:45:14;18.88;;;9.25;;
59336;SDS011;45115;52.002;4.686;2023-10-13T07:47:43;19.85;;;9.10;;
59336;SDS011;45115;52.002;4.686;2023-10-13T07:50:11;16.40;;;8.15;;
59336;SDS011;45115;52.002;4.686;2023-10-13T07:52:39;18.67;;;7.78;;
59336;SDS011;45115;52.002;4.686;2023-10-13T07:55:23;17.30;;;7.78;;
59336;SDS011;45115;52.002;4.686;2023-10-13T07:57:50;14.90;;;7.40;;
59336;SDS011;45115;52.002;4.686;2023-10-13T08:00:20;18.50;;;8.33;;
59336;SDS011;45115;52.002;4.686;2023-10-13T08:03:11;14.27;;;7.30;;
59336;SDS011;45115;52.002;4.686;2023-10-13T08:05:57;16.00;;;7.03;;
59336;SDS011;45115;52.002;4.686;2023-10-13T08:08:31;14.48;;;6.72;;
59336;SDS011;45115;52.002;4.686;2023-10-13T08:11:03;16.60;;;8.02;;
59336;SDS011;45115;52.002;4.686;2023-10-13T08:13:37;16.52;;;7.35;;
59336;SDS011;45115;52.002;4.686;2023-10-13T08:16:11;15.80;;;7.05;;
59336;SDS011;45115;52.002;4.686;2023-10-13T08:18:46;16.77;;;7.50;;
59336;SDS011;45115;52.002;4.686;2023-10-13T08:21:14;14.02;;;6.90;;
59336;SDS011;45115;52.002;4.686;2023-10-13T08:23:46;18.48;;;7.47;;
59336;SDS011;45115;52.002;4.686;2023-10-13T08:26:31;14.82;;;6.55;;
59336;SDS011;45115;52.002;4.686;2023-10-13T08:29:12;14.77;;;6.72;;
59336;SDS011;45115;52.002;4.686;2023-10-13T08:31:56;16.75;;;6.57;;
59336;SDS011;45115;52.002;4.686;2023-10-13T08:34:39;19.27;;;7.28;;
59336;SDS011;45115;52.002;4.686;2023-10-13T08:37:24;12.13;;;5.95;;
59336;SDS011;45115;52.002;4.686;2023-10-13T08:39:59;13.45;;;6.20;;
59336;SDS011;45115;52.002;4.686;2023-10-13T08:42:40;14.18;;;6.22;;
59336;SDS011;45115;52.002;4.686;2023-10-13T08:45:18;15.10;;;6.22;;
59336;SDS011;45115;52.002;4.686;2023-10-13T08:48:07;16.63;;;6.70;;
59336;SDS011;45115;52.002;4.686;2023-10-13T08:50:42;14.98;;;6.50;;
59336;SDS011;45115;52.002;4.686;2023-10-13T08:53:17;15.18;;;5.97;;
59336;SDS011;45115;52.002;4.686;2023-10-13T08:55:54;12.38;;;5.72;;
59336;SDS011;45115;52.002;4.686;2023-10-13T08:58:39;17.48;;;6.75;;
59336;SDS011;45115;52.002;4.686;2023-10-13T09:01:24;14.68;;;6.15;;
59336;SDS011;45115;52.002;4.686;2023-10-13T09:04:06;14.20;;;6.72;;
59336;SDS011;45115;52.002;4.686;2023-10-13T09:06:51;18.88;;;6.38;;
59336;SDS011;45115;52.002;4.686;2023-10-13T09:09:44;15.23;;;6.35;;
59336;SDS011;45115;52.002;4.686;2023-10-13T09:12:28;16.73;;;5.85;;
59336;SDS011;45115;52.002;4.686;2023-10-13T09:15:28;16.70;;;6.25;;
59336;SDS011;45115;52.002;4.686;2023-10-13T09:18:23;15.68;;;6.38;;
59336;SDS011;45115;52.002;4.686;2023-10-13T09:21:08;14.38;;;6.60;;
59336;SDS011;45115;52.002;4.686;2023-10-13T09:23:55;16.40;;;7.20;;
59336;SDS011;45115;52.002;4.686;2023-10-13T09:26:42;12.57;;;5.40;;
59336;SDS011;45115;52.002;4.686;2023-10-13T09:29:15;12.82;;;6.03;;
59336;SDS011;45115;52.002;4.686;2023-10-13T09:31:44;13.65;;;6.63;;
59336;SDS011;45115;52.002;4.686;2023-10-13T09:34:19;16.98;;;5.88;;
59336;SDS011;45115;52.002;4.686;2023-10-13T09:36:47;15.20;;;6.38;;
59336;SDS011;45115;52.002;4.686;2023-10-13T09:39:23;16.88;;;6.20;;
59336;SDS011;45115;52.002;4.686;2023-10-13T09:42:00;16.27;;;7.00;;
59336;SDS011;45115;52.002;4.686;2023-10-13T09:44:28;14.82;;;5.72;;
59336;SDS011;45115;52.002;4.686;2023-10-13T09:46:57;16.00;;;5.75;;
59336;SDS011;45115;52.002;4.686;2023-10-13T09:49:32;15.38;;;6.05;;
59336;SDS011;45115;52.002;4.686;2023-10-13T09:52:15;17.77;;;6.43;;
59336;SDS011;45115;52.002;4.686;2023-10-13T09:57:34;13.70;;;5.70;;
59336;SDS011;45115;52.002;4.686;2023-10-13T10:00:13;15.23;;;6.10;;
59336;SDS011;45115;52.002;4.686;2023-10-13T10:03:11;14.82;;;6.07;;
59336;SDS011;45115;52.002;4.686;2023-10-13T10:05:57;14.32;;;6.03;;
59336;SDS011;45115;52.002;4.686;2023-10-13T10:08:32;12.20;;;5.80;;
59336;SDS011;45115;52.002;4.686;2023-10-13T10:11:18;14.00;;;5.93;;
59336;SDS011;45115;52.002;4.686;2023-10-13T10:13:52;13.40;;;6.38;;
59336;SDS011;45115;52.002;4.686;2023-10-13T10:16:30;14.05;;;6.05;;
59336;SDS011;45115;52.002;4.686;2023-10-13T10:19:07;12.75;;;5.90;;
59336;SDS011;45115;52.002;4.686;2023-10-13T10:21:34;14.70;;;7.15;;
59336;SDS011;45115;52.002;4.686;2023-10-13T10:24:01;12.95;;;5.47;;
59336;SDS011;45115;52.002;4.686;2023-10-13T10:26:38;15.32;;;6.72;;
59336;SDS011;45115;52.002;4.686;2023-10-13T10:29:17;15.88;;;6.50;;
59336;SDS011;45115;52.002;4.686;2023-10-13T10:31:46;15.60;;;6.40;;
59336;SDS011;45115;52.002;4.686;2023-10-13T10:34:13;12.05;;;6.22;;
59336;SDS011;45115;52.002;4.686;2023-10-13T10:36:45;14.27;;;6.63;;
59336;SDS011;45115;52.002;4.686;2023-10-13T10:39:13;13.82;;;6.63;;
59336;SDS011;45115;52.002;4.686;2023-10-13T10:41:40;13.15;;;6.03;;
59336;SDS011;45115;52.002;4.686;2023-10-13T10:44:17;19.67;;;6.88;;
59336;SDS011;45115;52.002;4.686;2023-10-13T10:46:52;14.82;;;6.40;;
59336;SDS011;45115;52.002;4.686;2023-10-13T10:49:23;14.40;;;6.28;;
59336;SDS011;45115;52.002;4.686;2023-10-13T10:51:57;15.25;;;6.50;;
59336;SDS011;45115;52.002;4.686;2023-10-13T10:54:30;14.43;;;6.10;;
59336;SDS011;45115;52.002;4.686;2023-10-13T10:56:57;13.75;;;5.80;;
59336;SDS011;45115;52.002;4.686;2023-10-13T10:59:36;14.85;;;6.35;;
59336;SDS011;45115;52.002;4.686;2023-10-13T11:02:05;16.23;;;5.90;;
59336;SDS011;45115;52.002;4.686;2023-10-13T11:04:34;13.10;;;6.10;;
59336;SDS011;45115;52.002;4.686;2023-10-13T11:07:06;13.88;;;6.22;;
59336;SDS011;45115;52.002;4.686;2023-10-13T11:09:34;16.92;;;7.03;;
59336;SDS011;45115;52.002;4.686;2023-10-13T11:12:11;13.05;;;6.50;;
59336;SDS011;45115;52.002;4.686;2023-10-13T11:14:49;16.13;;;6.88;;
59336;SDS011;45115;52.002;4.686;2023-10-13T11:17:27;15.48;;;6.40;;
59336;SDS011;45115;52.002;4.686;2023-10-13T11:20:10;19.17;;;6.75;;
59336;SDS011;45115;52.002;4.686;2023-10-13T11:22:51;14.88;;;6.60;;
59336;SDS011;45115;52.002;4.686;2023-10-13T11:25:21;15.38;;;6.78;;
59336;SDS011;45115;52.002;4.686;2023-10-13T11:27:54;14.93;;;6.68;;
59336;SDS011;45115;52.002;4.686;2023-10-13T11:30:23;18.63;;;6.55;;
59336;SDS011;45115;52.002;4.686;2023-10-13T11:33:08;15.77;;;6.82;;
59336;SDS011;45115;52.002;4.686;2023-10-13T11:35:35;16.70;;;6.55;;
59336;SDS011;45115;52.002;4.686;2023-10-13T11:38:21;18.08;;;6.50;;
59336;SDS011;45115;52.002;4.686;2023-10-13T11:40:52;14.45;;;6.53;;
59336;SDS011;45115;52.002;4.686;2023-10-13T11:43:38;13.00;;;6.70;;
59336;SDS011;45115;52.002;4.686;2023-10-13T11:46:35;16.75;;;6.20;;
59336;SDS011;45115;52.002;4.686;2023-10-13T11:49:19;19.13;;;7.40;;
59336;SDS011;45115;52.002;4.686;2023-10-13T11:51:57;17.67;;;7.20;;
59336;SDS011;45115;52.002;4.686;2023-10-13T11:54:34;17.15;;;6.40;;
59336;SDS011;45115;52.002;4.686;2023-10-13T11:57:07;14.50;;;6.50;;
59336;SDS011;45115;52.002;4.686;2023-10-13T11:59:33;13.30;;;6.78;;
59336;SDS011;45115;52.002;4.686;2023-10-13T12:02:01;18.33;;;6.32;;
59336;SDS011;45115;52.002;4.686;2023-10-13T12:04:47;13.48;;;6.32;;
59336;SDS011;45115;52.002;4.686;2023-10-13T12:07:17;15.98;;;6.88;;
59336;SDS011;45115;52.002;4.686;2023-10-13T12:09:45;16.40;;;7.43;;
59336;SDS011;45115;52.002;4.686;2023-10-13T12:12:28;16.52;;;7.20;;
59336;SDS011;45115;52.002;4.686;2023-10-13T12:14:57;18.38;;;7.03;;
59336;SDS011;45115;52.002;4.686;2023-10-13T12:17:34;15.40;;;6.50;;
59336;SDS011;45115;52.002;4.686;2023-10-13T12:20:02;16.17;;;6.55;;
59336;SDS011;45115;52.002;4.686;2023-10-13T12:22:31;17.45;;;7.07;;
59336;SDS011;45115;52.002;4.686;2023-10-13T12:25:04;16.73;;;7.22;;
59336;SDS011;45115;52.002;4.686;2023-10-13T12:27:44;17.60;;;6.80;;
59336;SDS011;45115;52.002;4.686;2023-10-13T12:30:13;17.67;;;7.73;;
59336;SDS011;45115;52.002;4.686;2023-10-13T12:32:47;15.73;;;6.40;;
59336;SDS011;45115;52.002;4.686;2023-10-13T12:35:25;17.00;;;7.13;;
59336;SDS011;45115;52.002;4.686;2023-10-13T12:37:55;18.13;;;7.47;;
59336;SDS011;45115;52.002;4.686;2023-10-13T12:40:30;15.32;;;6.97;;
59336;SDS011;45115;52.002;4.686;2023-10-13T12:43:14;15.63;;;7.40;;
59336;SDS011;45115;52.002;4.686;2023-10-13T12:45:58;18.90;;;6.88;;
59336;SDS011;45115;52.002;4.686;2023-10-13T12:48:43;13.98;;;7.57;;
59336;SDS011;45115;52.002;4.686;2023-10-13T12:51:30;16.75;;;7.53;;
59336;SDS011;45115;52.002;4.686;2023-10-13T12:54:17;18.65;;;7.22;;
59336;SDS011;45115;52.002;4.686;2023-10-13T12:56:48;19.77;;;7.90;;
59336;SDS011;45115;52.002;4.686;2023-10-13T12:59:21;17.45;;;7.18;;
59336;SDS011;45115;52.002;4.686;2023-10-13T13:01:51;18.50;;;7.00;;
59336;SDS011;45115;52.002;4.686;2023-10-13T13:04:19;14.02;;;6.65;;
59336;SDS011;45115;52.002;4.686;2023-10-13T13:06:47;19.85;;;8.43;;
59336;SDS011;45115;52.002;4.686;2023-10-13T13:09:15;15.95;;;6.93;;
59336;SDS011;45115;52.002;4.686;2023-10-13T13:11:51;22.10;;;8.40;;
59336;SDS011;45115;52.002;4.686;2023-10-13T13:14:22;16.73;;;8.20;;
59336;SDS011;45115;52.002;4.686;2023-10-13T13:16:54;16.85;;;7.40;;
59336;SDS011;45115;52.002;4.686;2023-10-13T13:19:29;18.15;;;7.90;;
59336;SDS011;45115;52.002;4.686;2023-10-13T13:22:00;20.57;;;8.33;;
59336;SDS011;45115;52.002;4.686;2023-10-13T13:24:27;18.73;;;8.30;;
59336;SDS011;45115;52.002;4.686;2023-10-13T13:26:55;18.98;;;8.07;;
59336;SDS011;45115;52.002;4.686;2023-10-13T13:29:21;16.35;;;7.40;;
59336;SDS011;45115;52.002;4.686;2023-10-13T13:31:50;15.07;;;8.07;;
59336;SDS011;45115;52.002;4.686;2023-10-13T13:34:17;18.05;;;7.57;;
59336;SDS011;45115;52.002;4.686;2023-10-13T13:36:46;20.00;;;7.70;;
59336;SDS011;45115;52.002;4.686;2023-10-13T13:39:19;18.05;;;7.68;;
59336;SDS011;45115;52.002;4.686;2023-10-13T13:41:54;17.27;;;7.97;;
59336;SDS011;45115;52.002;4.686;2023-10-13T13:44:22;16.45;;;7.20;;
59336;SDS011;45115;52.002;4.686;2023-10-13T13:46:54;17.55;;;7.57;;
59336;SDS011;45115;52.002;4.686;2023-10-13T13:49:22;17.42;;;7.55;;
59336;SDS011;45115;52.002;4.686;2023-10-13T13:51:54;17.30;;;8.43;;
59336;SDS011;45115;52.002;4.686;2023-10-13T13:54:22;19.02;;;8.07;;
59336;SDS011;45115;52.002;4.686;2023-10-13T13:56:53;18.08;;;8.25;;
59336;SDS011;45115;52.002;4.686;2023-10-13T13:59:19;21.00;;;8.45;;
59336;SDS011;45115;52.002;4.686;2023-10-13T14:01:46;14.23;;;7.15;;
59336;SDS011;45115;52.002;4.686;2023-10-13T14:04:13;18.02;;;8.15;;
59336;SDS011;45115;52.002;4.686;2023-10-13T14:06:43;17.10;;;7.47;;
59336;SDS011;45115;52.002;4.686;2023-10-13T14:09:11;13.82;;;7.18;;
59336;SDS011;45115;52.002;4.686;2023-10-13T14:11:42;18.65;;;6.35;;
59336;SDS011;45115;52.002;4.686;2023-10-13T14:14:26;12.52;;;5.72;;
59336;SDS011;45115;52.002;4.686;2023-10-13T14:16:58;10.63;;;5.28;;
59336;SDS011;45115;52.002;4.686;2023-10-13T14:19:32;10.25;;;5.05;;
59336;SDS011;45115;52.002;4.686;2023-10-13T14:21:59;11.05;;;4.53;;
59336;SDS011;45115;52.002;4.686;2023-10-13T14:24:31;12.73;;;4.40;;
59336;SDS011;45115;52.002;4.686;2023-10-13T14:27:02;14.00;;;4.85;;
59336;SDS011;45115;52.002;4.686;2023-10-13T14:29:34;12.40;;;4.72;;
59336;SDS011;45115;52.002;4.686;2023-10-13T14:34:32;13.93;;;4.90;;
59336;SDS011;45115;52.002;4.686;2023-10-13T14:37:00;14.98;;;5.30;;
59336;SDS011;45115;52.002;4.686;2023-10-13T14:39:29;15.98;;;5.28;;
59336;SDS011;45115;52.002;4.686;2023-10-13T14:42:01;18.30;;;7.10;;
59336;SDS011;45115;52.002;4.686;2023-10-13T14:44:28;18.77;;;7.60;;
59336;SDS011;45115;52.002;4.686;2023-10-13T14:46:54;19.58;;;6.53;;
59336;SDS011;45115;52.002;4.686;2023-10-13T14:49:21;18.60;;;6.55;;
59336;SDS011;45115;52.002;4.686;2023-10-13T14:51:48;23.25;;;7.18;;
59336;SDS011;45115;52.002;4.686;2023-10-13T14:54:15;20.65;;;7.63;;
59336;SDS011;45115;52.002;4.686;2023-10-13T14:56:42;18.65;;;7.50;;
59336;SDS011;45115;52.002;4.686;2023-10-13T14:59:10;22.52;;;7.95;;
59336;SDS011;45115;52.002;4.686;2023-10-13T15:01:42;18.10;;;8.02;;
59336;SDS011;45115;52.002;4.686;2023-10-13T15:04:08;23.00;;;8.05;;
59336;SDS011;45115;52.002;4.686;2023-10-13T15:06:35;19.70;;;7.40;;
59336;SDS011;45115;52.002;4.686;2023-10-13T15:09:02;23.15;;;7.55;;
59336;SDS011;45115;52.002;4.686;2023-10-13T15:11:35;18.58;;;6.65;;
59336;SDS011;45115;52.002;4.686;2023-10-13T15:14:02;25.10;;;7.88;;
59336;SDS011;45115;52.002;4.686;2023-10-13T15:16:33;18.85;;;7.75;;
59336;SDS011;45115;52.002;4.686;2023-10-13T15:19:00;19.27;;;7.20;;
59336;SDS011;45115;52.002;4.686;2023-10-13T15:21:28;22.00;;;7.75;;
59336;SDS011;45115;52.002;4.686;2023-10-13T15:23:59;19.50;;;8.07;;
59336;SDS011;45115;52.002;4.686;2023-10-13T15:26:29;20.25;;;7.47;;
59336;SDS011;45115;52.002;4.686;2023-10-13T15:28:57;19.77;;;7.65;;
59336;SDS011;45115;52.002;4.686;2023-10-13T15:31:25;18.83;;;7.93;;
59336;SDS011;45115;52.002;4.686;2023-10-13T15:34:04;21.23;;;7.63;;